createdAt,value
2022-09-16T00:00:04.320Z,0.000000
2022-09-16T00:01:00.997Z,0.000000
2022-09-16T00:02:00.915Z,0.000000
2022-09-16T00:03:00.852Z,0.000000
2022-09-16T00:04:00.912Z,0.000000
2022-09-16T00:05:04.009Z,0.000000
2022-09-16T00:06:01.126Z,0.000000
2022-09-16T00:07:00.865Z,0.000000
2022-09-16T00:08:00.963Z,0.000000
2022-09-16T00:09:00.905Z,0.000000
2022-09-16T00:10:04.307Z,0.000000
2022-09-16T00:11:00.896Z,0.000000
2022-09-16T00:12:01.007Z,0.000000
2022-09-16T00:13:00.927Z,0.000000
2022-09-16T00:14:00.974Z,0.000000
2022-09-16T00:15:03.881Z,0.000000
2022-09-16T00:16:01.075Z,0.000000
2022-09-16T00:17:00.945Z,0.000000
2022-09-16T00:18:01.033Z,0.000000
2022-09-16T00:19:01.070Z,0.000000
2022-09-16T00:20:04.416Z,0.000000
2022-09-16T00:21:00.986Z,0.000000
2022-09-16T00:22:01.093Z,0.000000
2022-09-16T00:23:01.002Z,0.000000
2022-09-16T00:24:01.315Z,0.000000
2022-09-16T00:25:04.078Z,0.000000
2022-09-16T00:26:01.078Z,0.000000
2022-09-16T00:27:01.028Z,0.000000
2022-09-16T00:28:01.097Z,0.000000
2022-09-16T00:29:01.026Z,0.000000
2022-09-16T00:30:05.403Z,0.000000
2022-09-16T00:31:01.118Z,0.000000
2022-09-16T00:32:01.116Z,0.000000
2022-09-16T00:33:01.078Z,0.000000
2022-09-16T00:34:01.129Z,0.000000
2022-09-16T00:35:04.064Z,0.000000
2022-09-16T00:36:01.173Z,0.000000
2022-09-16T00:37:01.085Z,0.000000
2022-09-16T00:38:01.178Z,0.000000
2022-09-16T00:39:01.104Z,0.000000
2022-09-16T00:40:06.087Z,0.000000
2022-09-16T00:41:01.126Z,0.000000
2022-09-16T00:42:01.224Z,0.000000
2022-09-16T00:43:01.111Z,0.000000
2022-09-16T00:44:01.192Z,0.000000
2022-09-16T00:45:04.725Z,0.000000
2022-09-16T00:46:01.215Z,0.000000
2022-09-16T00:47:01.202Z,0.000000
2022-09-16T00:48:00.275Z,0.000000
2022-09-16T00:49:00.175Z,0.000000
2022-09-16T00:50:03.500Z,0.000000
2022-09-16T00:51:00.197Z,0.000000
2022-09-16T00:52:00.273Z,0.000000
2022-09-16T00:53:00.209Z,0.000000
2022-09-16T00:54:00.404Z,0.000000
2022-09-16T00:55:03.326Z,0.000000
2022-09-16T00:56:00.329Z,0.000000
2022-09-16T00:57:00.237Z,0.000000
2022-09-16T00:58:00.310Z,0.000000
2022-09-16T00:59:00.252Z,0.000000
2022-09-16T01:00:03.793Z,0.000000
2022-09-16T01:01:00.312Z,0.000000
2022-09-16T01:02:00.489Z,0.000000
2022-09-16T01:03:00.303Z,0.000000
2022-09-16T01:04:00.363Z,0.000000
2022-09-16T01:05:03.251Z,0.000000
2022-09-16T01:06:00.384Z,0.000000
2022-09-16T01:07:00.324Z,0.000000
2022-09-16T01:08:00.405Z,0.000000
2022-09-16T01:09:00.334Z,0.000000
2022-09-16T01:10:04.739Z,0.000000
2022-09-16T01:11:00.356Z,0.000000
2022-09-16T01:12:00.438Z,0.000000
2022-09-16T01:13:00.365Z,0.000000
2022-09-16T01:14:00.420Z,0.000000
2022-09-16T01:15:03.506Z,0.000000
2022-09-16T01:16:00.523Z,0.000000
2022-09-16T01:17:00.387Z,0.000000
2022-09-16T01:18:00.473Z,0.000000
2022-09-16T01:19:00.411Z,0.000000
2022-09-16T01:20:04.747Z,0.000000
2022-09-16T01:21:00.432Z,0.000000
2022-09-16T01:22:00.510Z,0.000000
2022-09-16T01:23:00.452Z,0.000000
2022-09-16T01:24:00.529Z,0.000000
2022-09-16T01:25:03.444Z,0.000000
2022-09-16T01:26:00.690Z,0.000000
2022-09-16T01:27:00.530Z,0.000000
2022-09-16T01:28:00.580Z,0.000000
2022-09-16T01:29:00.501Z,0.000000
2022-09-16T01:30:03.609Z,0.000000
2022-09-16T01:31:00.569Z,0.000000
2022-09-16T01:32:00.593Z,0.000000
2022-09-16T01:33:00.548Z,0.000000
2022-09-16T01:34:00.623Z,0.000000
2022-09-16T01:35:08.492Z,0.000000
2022-09-16T01:36:00.639Z,0.000000
2022-09-16T01:37:00.568Z,0.000000
2022-09-16T01:38:00.638Z,0.000000
2022-09-16T01:39:00.591Z,0.000000
2022-09-16T01:40:05.404Z,0.000000
2022-09-16T01:41:00.605Z,0.000000
2022-09-16T01:42:00.722Z,0.000000
2022-09-16T01:43:00.620Z,0.000000
2022-09-16T01:44:00.674Z,0.000000
2022-09-16T01:45:03.447Z,0.000000
2022-09-16T01:46:00.746Z,0.000000
2022-09-16T01:47:00.647Z,0.000000
2022-09-16T01:48:00.721Z,0.000000
2022-09-16T01:49:00.702Z,0.000000
2022-09-16T01:50:04.068Z,0.000000
2022-09-16T01:51:00.681Z,0.000000
2022-09-16T01:52:00.756Z,0.000000
2022-09-16T01:53:00.687Z,0.000000
2022-09-16T01:54:00.757Z,0.000000
2022-09-16T01:55:03.668Z,0.000000
2022-09-16T01:56:00.771Z,0.000000
2022-09-16T01:57:00.726Z,0.000000
2022-09-16T01:58:00.843Z,0.000000
2022-09-16T01:59:00.742Z,0.000000
2022-09-16T02:00:04.020Z,0.000000
2022-09-16T02:01:00.756Z,0.000000
2022-09-16T02:02:00.876Z,0.000000
2022-09-16T02:03:00.824Z,0.000000
2022-09-16T02:04:00.861Z,0.000000
2022-09-16T02:05:03.851Z,0.000000
2022-09-16T02:06:00.855Z,0.000000
2022-09-16T02:07:00.774Z,0.000000
2022-09-16T02:08:00.845Z,0.000000
2022-09-16T02:09:00.807Z,0.000000
2022-09-16T02:10:04.025Z,0.000000
2022-09-16T02:11:00.804Z,0.000000
2022-09-16T02:12:00.889Z,0.000000
2022-09-16T02:13:00.832Z,0.000000
2022-09-16T02:14:01.082Z,0.000000
2022-09-16T02:15:03.793Z,0.000000
2022-09-16T02:16:01.018Z,0.000000
2022-09-16T02:17:00.842Z,0.000000
2022-09-16T02:18:00.902Z,0.000000
2022-09-16T02:19:00.854Z,0.000000
2022-09-16T02:20:04.103Z,0.000000
2022-09-16T02:21:00.875Z,0.000000
2022-09-16T02:22:00.955Z,0.000000
2022-09-16T02:23:00.883Z,0.000000
2022-09-16T02:24:00.966Z,0.000000
2022-09-16T02:25:03.631Z,0.000000
2022-09-16T02:26:00.976Z,0.000000
2022-09-16T02:27:00.918Z,0.000000
2022-09-16T02:28:01.092Z,0.000000
2022-09-16T02:29:00.913Z,0.000000
2022-09-16T02:30:04.339Z,0.000000
2022-09-16T02:31:01.007Z,0.000000
2022-09-16T02:32:01.255Z,0.000000
2022-09-16T02:33:00.957Z,0.000000
2022-09-16T02:34:01.042Z,0.000000
2022-09-16T02:35:04.645Z,0.000000
2022-09-16T02:36:01.038Z,0.000000
2022-09-16T02:37:00.974Z,0.000000
2022-09-16T02:38:01.060Z,0.000000
2022-09-16T02:39:00.999Z,0.000000
2022-09-16T02:40:04.321Z,0.000000
2022-09-16T02:41:01.002Z,0.000000
2022-09-16T02:42:01.089Z,0.000000
2022-09-16T02:43:01.015Z,0.000000
2022-09-16T02:44:01.074Z,0.000000
2022-09-16T02:45:04.502Z,0.000000
2022-09-16T02:46:01.228Z,0.000000
2022-09-16T02:47:01.041Z,0.000000
2022-09-16T02:48:01.132Z,0.000000
2022-09-16T02:49:01.054Z,0.000000
2022-09-16T02:50:06.009Z,0.000000
2022-09-16T02:51:01.079Z,0.000000
2022-09-16T02:52:01.165Z,0.000000
2022-09-16T02:53:01.088Z,0.000000
2022-09-16T02:54:01.160Z,0.000000
2022-09-16T02:55:04.028Z,0.000000
2022-09-16T02:56:01.172Z,0.000000
2022-09-16T02:57:01.124Z,0.000000
2022-09-16T02:58:01.259Z,0.000000
2022-09-16T02:59:01.123Z,0.000000
2022-09-16T03:00:06.849Z,0.000000
2022-09-16T03:01:02.180Z,0.000000
2022-09-16T03:02:02.288Z,0.000000
2022-09-16T03:03:03.399Z,0.000000
2022-09-16T03:04:02.238Z,0.000000
2022-09-16T03:05:05.170Z,0.000000
2022-09-16T03:06:01.267Z,0.000000
2022-09-16T03:07:01.209Z,0.000000
2022-09-16T03:08:01.289Z,0.000000
2022-09-16T03:09:01.258Z,0.000000
2022-09-16T03:10:05.866Z,0.000000
2022-09-16T03:11:01.229Z,0.000000
2022-09-16T03:12:01.298Z,0.000000
2022-09-16T03:13:01.243Z,0.000000
2022-09-16T03:14:01.314Z,0.000000
2022-09-16T03:15:05.627Z,0.000000
2022-09-16T03:16:01.354Z,0.000000
2022-09-16T03:17:01.292Z,0.000000
2022-09-16T03:18:01.334Z,0.000000
2022-09-16T03:19:01.315Z,0.000000
2022-09-16T03:20:04.640Z,0.000000
2022-09-16T03:21:01.330Z,0.000000
2022-09-16T03:22:01.373Z,0.000000
2022-09-16T03:23:01.311Z,0.000000
2022-09-16T03:24:01.388Z,0.000000
2022-09-16T03:25:04.392Z,0.000000
2022-09-16T03:26:01.398Z,0.000000
2022-09-16T03:27:01.409Z,0.000000
2022-09-16T03:28:01.414Z,0.000000
2022-09-16T03:29:01.348Z,0.000000
2022-09-16T03:30:06.263Z,0.000000
2022-09-16T03:31:01.388Z,0.000000
2022-09-16T03:32:01.461Z,0.000000
2022-09-16T03:33:01.462Z,0.000000
2022-09-16T03:34:01.493Z,0.000000
2022-09-16T03:35:04.676Z,0.000000
2022-09-16T03:36:01.532Z,0.000000
2022-09-16T03:37:01.469Z,0.000000
2022-09-16T03:38:01.497Z,0.000000
2022-09-16T03:39:01.464Z,0.000000
2022-09-16T03:40:05.127Z,0.000000
2022-09-16T03:41:01.437Z,0.000000
2022-09-16T03:42:01.516Z,0.000000
2022-09-16T03:43:01.449Z,0.000000
2022-09-16T03:44:04.179Z,0.000000
2022-09-16T03:45:04.943Z,0.000000
2022-09-16T03:46:01.598Z,0.000000
2022-09-16T03:47:01.472Z,0.000000
2022-09-16T03:48:01.559Z,0.000000
2022-09-16T03:49:01.521Z,0.000000
2022-09-16T03:50:05.309Z,0.000000
2022-09-16T03:51:01.511Z,0.000000
2022-09-16T03:52:00.577Z,0.000000
2022-09-16T03:53:00.521Z,0.000000
2022-09-16T03:54:00.604Z,0.000000
2022-09-16T03:55:03.499Z,0.000000
2022-09-16T03:56:00.632Z,0.000000
2022-09-16T03:57:00.601Z,0.000000
2022-09-16T03:58:00.611Z,0.000000
2022-09-16T03:59:00.559Z,0.000000
2022-09-16T04:00:06.929Z,0.000000
2022-09-16T04:01:00.598Z,0.000000
2022-09-16T04:02:00.690Z,0.000000
2022-09-16T04:03:00.694Z,0.000000
2022-09-16T04:04:00.672Z,0.000000
2022-09-16T04:05:03.640Z,0.000000
2022-09-16T04:06:00.688Z,0.000000
2022-09-16T04:07:00.626Z,0.000000
2022-09-16T04:08:00.928Z,0.000000
2022-09-16T04:09:00.637Z,0.000000
2022-09-16T04:10:04.985Z,0.000000
2022-09-16T04:11:00.657Z,0.000000
2022-09-16T04:12:00.746Z,0.000000
2022-09-16T04:13:00.674Z,0.000000
2022-09-16T04:14:01.260Z,0.000000
2022-09-16T04:15:04.941Z,0.000000
2022-09-16T04:16:00.799Z,0.000000
2022-09-16T04:17:00.699Z,0.000000
2022-09-16T04:18:00.782Z,0.000000
2022-09-16T04:19:00.715Z,0.000000
2022-09-16T04:20:04.437Z,0.000000
2022-09-16T04:21:00.742Z,0.000000
2022-09-16T04:22:01.068Z,0.000000
2022-09-16T04:23:00.750Z,0.000000
2022-09-16T04:24:00.877Z,0.000000
2022-09-16T04:25:05.502Z,0.000000
2022-09-16T04:26:01.098Z,0.000000
2022-09-16T04:27:00.796Z,0.000000
2022-09-16T04:28:00.854Z,0.000000
2022-09-16T04:29:00.800Z,0.000000
2022-09-16T04:30:04.448Z,0.000000
2022-09-16T04:31:00.915Z,0.000000
2022-09-16T04:32:00.881Z,0.000000
2022-09-16T04:33:00.825Z,0.000000
2022-09-16T04:34:00.894Z,0.000000
2022-09-16T04:35:04.184Z,0.000000
2022-09-16T04:36:00.957Z,0.000000
2022-09-16T04:37:00.877Z,0.000000
2022-09-16T04:38:00.915Z,0.000000
2022-09-16T04:39:00.862Z,0.000000
2022-09-16T04:40:07.342Z,0.000000
2022-09-16T04:41:00.868Z,0.000000
2022-09-16T04:42:00.942Z,0.000000
2022-09-16T04:43:00.916Z,0.000000
2022-09-16T04:44:00.959Z,0.000000
2022-09-16T04:45:05.084Z,0.000000
2022-09-16T04:46:01.068Z,0.000000
2022-09-16T04:47:00.907Z,0.000000
2022-09-16T04:48:00.984Z,0.000000
2022-09-16T04:49:00.948Z,4.100000
2022-09-16T04:50:04.538Z,4.100000
2022-09-16T04:51:00.935Z,4.100000
2022-09-16T04:52:01.208Z,4.100000
2022-09-16T04:53:00.938Z,4.100000
2022-09-16T04:54:01.028Z,10.200000
2022-09-16T04:55:03.862Z,10.200000
2022-09-16T04:56:01.021Z,14.200000
2022-09-16T04:57:00.975Z,14.200000
2022-09-16T04:58:01.033Z,22.400000
2022-09-16T04:59:01.002Z,22.400000
2022-09-16T05:00:05.649Z,22.400000
2022-09-16T05:01:01.025Z,26.400000
2022-09-16T05:02:01.330Z,26.400000
2022-09-16T05:03:01.078Z,26.400000
2022-09-16T05:04:01.096Z,38.600000
2022-09-16T05:05:04.091Z,38.600000
2022-09-16T05:06:01.149Z,59.000000
2022-09-16T05:07:01.087Z,59.000000
2022-09-16T05:08:01.152Z,73.200000
2022-09-16T05:09:01.101Z,73.200000
2022-09-16T05:10:04.353Z,73.200000
2022-09-16T05:11:01.089Z,95.600000
2022-09-16T05:12:01.209Z,95.600000
2022-09-16T05:13:01.090Z,95.600000
2022-09-16T05:14:01.169Z,118.000000
2022-09-16T05:15:04.208Z,118.000000
2022-09-16T05:16:01.234Z,144.400000
2022-09-16T05:17:01.113Z,144.400000
2022-09-16T05:18:01.235Z,170.900000
2022-09-16T05:19:01.124Z,170.900000
2022-09-16T05:20:06.963Z,170.900000
2022-09-16T05:21:01.157Z,244.100000
2022-09-16T05:22:01.222Z,244.100000
2022-09-16T05:23:01.201Z,244.100000
2022-09-16T05:24:01.295Z,292.900000
2022-09-16T05:25:05.463Z,292.900000
2022-09-16T05:26:01.244Z,292.900000
2022-09-16T05:27:00.191Z,337.600000
2022-09-16T05:28:00.253Z,337.600000
2022-09-16T05:29:00.187Z,412.900000
2022-09-16T05:30:03.506Z,412.900000
2022-09-16T05:31:00.278Z,476.000000
2022-09-16T05:32:00.289Z,476.000000
2022-09-16T05:33:00.223Z,476.000000
2022-09-16T05:34:00.291Z,484.100000
2022-09-16T05:35:03.442Z,484.100000
2022-09-16T05:36:00.336Z,484.100000
2022-09-16T05:37:00.237Z,929.500000
2022-09-16T05:38:00.306Z,929.500000
2022-09-16T05:39:21.633Z,929.500000
2022-09-16T05:40:03.712Z,929.500000
2022-09-16T05:41:00.261Z,1894.000000
2022-09-16T05:42:00.379Z,1894.000000
2022-09-16T05:43:00.270Z,1894.000000
2022-09-16T05:44:00.341Z,1894.000000
2022-09-16T05:45:03.278Z,632.600000
2022-09-16T05:46:00.434Z,632.600000
2022-09-16T05:47:00.308Z,646.800000
2022-09-16T05:48:00.416Z,646.800000
2022-09-16T05:49:00.310Z,646.800000
2022-09-16T05:50:03.920Z,758.700000
2022-09-16T05:51:00.335Z,758.700000
2022-09-16T05:52:00.397Z,856.300000
2022-09-16T05:53:00.337Z,856.300000
2022-09-16T05:54:00.442Z,897.000000
2022-09-16T05:55:04.530Z,897.000000
2022-09-16T05:56:00.446Z,897.000000
2022-09-16T05:57:04.531Z,866.500000
2022-09-16T05:58:00.439Z,866.500000
2022-09-16T05:59:00.377Z,866.500000
2022-09-16T06:00:04.774Z,866.500000
2022-09-16T06:01:00.412Z,866.500000
2022-09-16T06:02:00.595Z,831.900000
2022-09-16T06:03:00.422Z,831.900000
2022-09-16T06:04:00.495Z,840.000000
2022-09-16T06:05:03.429Z,840.000000
2022-09-16T06:06:00.526Z,840.000000
2022-09-16T06:07:00.453Z,921.400000
2022-09-16T06:08:00.513Z,921.400000
2022-09-16T06:09:00.469Z,921.400000
2022-09-16T06:10:04.878Z,1185.800000
2022-09-16T06:11:00.499Z,1185.800000
2022-09-16T06:12:02.076Z,1185.800000
2022-09-16T06:13:00.483Z,1330.200000
2022-09-16T06:14:00.553Z,1330.200000
2022-09-16T06:15:25.391Z,1488.900000
2022-09-16T06:16:00.920Z,1488.900000
2022-09-16T06:17:00.509Z,1784.000000
2022-09-16T06:18:05.538Z,1784.000000
2022-09-16T06:19:00.519Z,1784.000000
2022-09-16T06:20:03.965Z,2233.000000
2022-09-16T06:21:00.549Z,2233.000000
2022-09-16T06:22:00.614Z,2626.000000
2022-09-16T06:23:00.550Z,2626.000000
2022-09-16T06:24:00.641Z,2626.000000
2022-09-16T06:25:03.569Z,3934.000000
2022-09-16T06:26:00.624Z,3934.000000
2022-09-16T06:27:00.645Z,3817.000000
2022-09-16T06:28:00.644Z,3817.000000
2022-09-16T06:29:00.592Z,3817.000000
2022-09-16T06:30:04.083Z,2935.000000
2022-09-16T06:31:00.658Z,2935.000000
2022-09-16T06:32:00.690Z,2935.000000
2022-09-16T06:33:00.625Z,3690.000000
2022-09-16T06:34:00.674Z,3690.000000
2022-09-16T06:35:03.762Z,5691.000000
2022-09-16T06:36:00.786Z,5691.000000
2022-09-16T06:37:00.649Z,5886.000000
2022-09-16T06:38:00.717Z,5886.000000
2022-09-16T06:39:00.737Z,5678.000000
2022-09-16T06:40:05.833Z,5678.000000
2022-09-16T06:41:00.695Z,5678.000000
2022-09-16T06:42:00.778Z,5099.000000
2022-09-16T06:43:00.719Z,5099.000000
2022-09-16T06:44:00.752Z,5099.000000
2022-09-16T06:45:03.610Z,5859.000000
2022-09-16T06:46:00.845Z,5859.000000
2022-09-16T06:47:00.726Z,6278.000000
2022-09-16T06:48:00.835Z,6278.000000
2022-09-16T06:49:05.450Z,5962.000000
2022-09-16T06:50:04.205Z,5962.000000
2022-09-16T06:51:00.769Z,5962.000000
2022-09-16T06:52:00.841Z,3930.000000
2022-09-16T06:53:00.781Z,3930.000000
2022-09-16T06:54:00.897Z,3930.000000
2022-09-16T06:55:03.816Z,3527.000000
2022-09-16T06:56:00.859Z,3527.000000
2022-09-16T06:57:00.803Z,3407.000000
2022-09-16T06:58:00.872Z,3407.000000
2022-09-16T06:59:00.841Z,2874.000000
2022-09-16T07:00:05.265Z,2874.000000
2022-09-16T07:01:00.904Z,2874.000000
2022-09-16T07:02:00.981Z,2874.000000
2022-09-16T07:03:00.910Z,2903.000000
2022-09-16T07:04:00.935Z,2903.000000
2022-09-16T07:05:03.771Z,2467.000000
2022-09-16T07:06:00.982Z,2467.000000
2022-09-16T07:07:09.978Z,2467.000000
2022-09-16T07:08:00.960Z,3187.000000
2022-09-16T07:09:00.904Z,3187.000000
2022-09-16T07:10:05.973Z,4029.000000
2022-09-16T07:11:00.925Z,4029.000000
2022-09-16T07:12:01.018Z,4249.000000
2022-09-16T07:13:00.936Z,4249.000000
2022-09-16T07:14:01.000Z,4249.000000
2022-09-16T07:15:04.265Z,4575.000000
2022-09-16T07:16:12.744Z,4575.000000
2022-09-16T07:17:01.064Z,4575.000000
2022-09-16T07:18:01.070Z,4112.000000
2022-09-16T07:19:01.396Z,4112.000000
2022-09-16T07:20:04.457Z,3793.000000
2022-09-16T07:21:00.990Z,3793.000000
2022-09-16T07:22:01.058Z,2567.000000
2022-09-16T07:23:00.990Z,2567.000000
2022-09-16T07:24:01.105Z,2567.000000
2022-09-16T07:25:05.132Z,2376.000000
2022-09-16T07:26:01.069Z,2376.000000
2022-09-16T07:27:01.020Z,2376.000000
2022-09-16T07:28:01.091Z,2630.000000
2022-09-16T07:29:01.052Z,2630.000000
2022-09-16T07:30:09.173Z,2630.000000
2022-09-16T07:31:01.149Z,3086.000000
2022-09-16T07:32:01.111Z,3086.000000
2022-09-16T07:33:01.061Z,3846.000000
2022-09-16T07:34:04.007Z,3846.000000
2022-09-16T07:35:05.245Z,3855.000000
2022-09-16T07:36:01.183Z,3855.000000
2022-09-16T07:37:01.083Z,3855.000000
2022-09-16T07:38:01.157Z,3855.000000
2022-09-16T07:39:01.110Z,3855.000000
2022-09-16T07:40:05.754Z,3855.000000
2022-09-16T07:41:01.106Z,3503.000000
2022-09-16T07:42:05.748Z,3503.000000
2022-09-16T07:43:01.127Z,3405.000000
2022-09-16T07:44:01.186Z,3405.000000
2022-09-16T07:45:05.434Z,3088.000000
2022-09-16T07:46:01.316Z,3088.000000
2022-09-16T07:47:00.155Z,3088.000000
2022-09-16T07:48:00.272Z,3810.000000
2022-09-16T07:49:00.160Z,3810.000000
2022-09-16T07:50:04.725Z,3810.000000
2022-09-16T07:51:00.191Z,4210.000000
2022-09-16T07:52:00.251Z,4210.000000
2022-09-16T07:53:00.200Z,4815.000000
2022-09-16T07:54:00.366Z,4815.000000
2022-09-16T07:55:03.134Z,4815.000000
2022-09-16T07:56:00.280Z,7617.000000
2022-09-16T07:57:00.226Z,7617.000000
2022-09-16T07:58:00.297Z,5521.000000
2022-09-16T07:59:00.230Z,5521.000000
2022-09-16T08:00:05.194Z,4231.000000
2022-09-16T08:01:04.284Z,4231.000000
2022-09-16T08:02:01.525Z,4231.000000
2022-09-16T08:03:00.411Z,4505.000000
2022-09-16T08:04:00.376Z,4505.000000
2022-09-16T08:05:04.899Z,8169.000000
2022-09-16T08:06:00.393Z,8169.000000
2022-09-16T08:07:00.310Z,8169.000000
2022-09-16T08:08:00.429Z,8331.000000
2022-09-16T08:09:10.462Z,8331.000000
2022-09-16T08:10:04.665Z,5107.000000
2022-09-16T08:11:00.367Z,5107.000000
2022-09-16T08:12:00.406Z,5107.000000
2022-09-16T08:13:00.344Z,4310.000000
2022-09-16T08:14:00.416Z,4310.000000
2022-09-16T08:15:03.591Z,4310.000000
2022-09-16T08:16:00.431Z,4291.000000
2022-09-16T08:17:00.476Z,4291.000000
2022-09-16T08:18:00.472Z,4730.000000
2022-09-16T08:19:00.376Z,4730.000000
2022-09-16T08:20:04.836Z,4730.000000
2022-09-16T08:21:00.420Z,5034.000000
2022-09-16T08:22:00.466Z,5034.000000
2022-09-16T08:23:00.481Z,5034.000000
2022-09-16T08:24:00.514Z,6072.000000
2022-09-16T08:25:03.510Z,6072.000000
2022-09-16T08:26:00.490Z,6984.000000
2022-09-16T08:27:00.440Z,6984.000000
2022-09-16T08:28:00.506Z,6984.000000
2022-09-16T08:29:09.440Z,6984.000000
2022-09-16T08:30:03.721Z,6984.000000
2022-09-16T08:31:00.460Z,5149.000000
2022-09-16T08:32:00.610Z,5149.000000
2022-09-16T08:33:00.488Z,5149.000000
2022-09-16T08:34:00.963Z,4795.000000
2022-09-16T08:35:04.023Z,4795.000000
2022-09-16T08:36:00.569Z,4589.000000
2022-09-16T08:37:00.505Z,4589.000000
2022-09-16T08:38:00.569Z,4589.000000
2022-09-16T08:39:00.520Z,4250.000000
2022-09-16T08:40:04.634Z,4250.000000
2022-09-16T08:41:00.538Z,3974.000000
2022-09-16T08:42:00.614Z,3974.000000
2022-09-16T08:43:00.546Z,3974.000000
2022-09-16T08:44:00.612Z,4591.000000
2022-09-16T08:45:04.726Z,4591.000000
2022-09-16T08:46:00.743Z,4591.000000
2022-09-16T08:47:00.582Z,5248.000000
2022-09-16T08:48:00.658Z,5248.000000
2022-09-16T08:49:00.670Z,5738.000000
2022-09-16T08:50:03.716Z,5738.000000
2022-09-16T08:51:00.603Z,5738.000000
2022-09-16T08:52:00.712Z,6402.000000
2022-09-16T08:53:00.619Z,6402.000000
2022-09-16T08:54:00.694Z,4409.000000
2022-09-16T08:55:04.106Z,4409.000000
2022-09-16T08:56:00.689Z,4409.000000
2022-09-16T08:57:00.630Z,4389.000000
2022-09-16T08:58:00.728Z,4389.000000
2022-09-16T08:59:00.648Z,7073.000000
2022-09-16T09:00:06.688Z,7073.000000
2022-09-16T09:01:01.765Z,7073.000000
2022-09-16T09:02:06.559Z,6638.000000
2022-09-16T09:03:01.763Z,6638.000000
2022-09-16T09:04:02.119Z,5656.000000
2022-09-16T09:05:04.724Z,5656.000000
2022-09-16T09:06:02.280Z,5656.000000
2022-09-16T09:07:01.723Z,5063.000000
2022-09-16T09:08:02.467Z,5063.000000
2022-09-16T09:09:01.744Z,5063.000000
2022-09-16T09:10:10.023Z,4859.000000
2022-09-16T09:11:01.777Z,4859.000000
2022-09-16T09:12:03.096Z,5104.000000
2022-09-16T09:13:02.242Z,5104.000000
2022-09-16T09:14:02.613Z,5828.000000
2022-09-16T09:15:06.199Z,5828.000000
2022-09-16T09:16:01.898Z,5386.000000
2022-09-16T09:17:01.804Z,5386.000000
2022-09-16T09:18:01.879Z,5386.000000
2022-09-16T09:19:01.818Z,5389.000000
2022-09-16T09:20:06.437Z,5389.000000
2022-09-16T09:21:01.835Z,5389.000000
2022-09-16T09:22:01.896Z,7221.000000
2022-09-16T09:23:01.825Z,7221.000000
2022-09-16T09:24:01.911Z,6252.000000
2022-09-16T09:25:06.346Z,6252.000000
2022-09-16T09:26:01.989Z,4932.000000
2022-09-16T09:27:01.875Z,4932.000000
2022-09-16T09:28:01.948Z,4932.000000
2022-09-16T09:29:01.880Z,3917.000000
2022-09-16T09:30:06.777Z,3917.000000
2022-09-16T09:31:01.917Z,3917.000000
2022-09-16T09:32:02.060Z,2203.000000
2022-09-16T09:33:01.971Z,2203.000000
2022-09-16T09:34:01.991Z,2203.000000
2022-09-16T09:35:04.943Z,1749.000000
2022-09-16T09:36:02.228Z,1749.000000
2022-09-16T09:37:01.948Z,2978.000000
2022-09-16T09:38:02.053Z,2978.000000
2022-09-16T09:39:01.971Z,3865.000000
2022-09-16T09:40:06.781Z,3865.000000
2022-09-16T09:41:01.968Z,3865.000000
2022-09-16T09:42:02.047Z,4746.000000
2022-09-16T09:43:01.978Z,4746.000000
2022-09-16T09:44:02.057Z,6382.000000
2022-09-16T09:45:06.596Z,6382.000000
2022-09-16T09:46:01.158Z,6382.000000
2022-09-16T09:47:01.020Z,5611.000000
2022-09-16T09:48:01.078Z,5611.000000
2022-09-16T09:49:01.019Z,5213.000000
2022-09-16T09:50:04.356Z,5213.000000
2022-09-16T09:51:01.039Z,5213.000000
2022-09-16T09:52:01.131Z,8911.000000
2022-09-16T09:53:01.037Z,8911.000000
2022-09-16T09:54:01.140Z,8681.000000
2022-09-16T09:55:06.651Z,8681.000000
2022-09-16T09:56:01.117Z,8681.000000
2022-09-16T09:57:01.089Z,9209.000000
2022-09-16T09:58:01.145Z,9209.000000
2022-09-16T09:59:01.080Z,30340.000000
2022-09-16T10:00:06.197Z,30340.000000
2022-09-16T10:01:01.214Z,30340.000000
2022-09-16T10:02:01.294Z,35180.000000
2022-09-16T10:03:01.136Z,35180.000000
2022-09-16T10:04:01.195Z,35180.000000
2022-09-16T10:05:04.566Z,5146.000000
2022-09-16T10:06:01.222Z,5146.000000
2022-09-16T10:08:00.231Z,4568.000000
2022-09-16T10:09:00.188Z,4568.000000
2022-09-16T10:10:05.021Z,4278.000000
2022-09-16T10:11:00.197Z,4278.000000
2022-09-16T10:12:00.275Z,4739.000000
2022-09-16T10:13:00.230Z,4739.000000
2022-09-16T10:14:00.263Z,4739.000000
2022-09-16T10:15:03.315Z,5484.000000
2022-09-16T10:16:00.343Z,5484.000000
2022-09-16T10:17:00.236Z,6629.000000
2022-09-16T10:18:00.312Z,6629.000000
2022-09-16T10:19:00.264Z,6629.000000
2022-09-16T10:20:04.272Z,6018.000000
2022-09-16T10:21:00.258Z,6018.000000
2022-09-16T10:22:00.316Z,5770.000000
2022-09-16T10:23:00.284Z,5770.000000
2022-09-16T10:24:00.360Z,5770.000000
2022-09-16T10:25:03.273Z,4760.000000
2022-09-16T10:26:00.342Z,4760.000000
2022-09-16T10:27:00.295Z,4760.000000
2022-09-16T10:28:00.368Z,4275.000000
2022-09-16T10:29:00.347Z,4275.000000
2022-09-16T10:30:05.169Z,4269.000000
2022-09-16T10:31:00.322Z,4269.000000
2022-09-16T10:32:00.449Z,4269.000000
2022-09-16T10:33:00.319Z,6197.000000
2022-09-16T10:34:00.388Z,6197.000000
2022-09-16T10:35:03.387Z,7648.000000
2022-09-16T10:36:00.465Z,7648.000000
2022-09-16T10:37:00.346Z,7648.000000
2022-09-16T10:38:00.429Z,14820.000000
2022-09-16T10:39:04.490Z,14820.000000
2022-09-16T10:40:04.918Z,14820.000000
2022-09-16T10:41:00.382Z,14820.000000
2022-09-16T10:42:00.480Z,14820.000000
2022-09-16T10:43:00.391Z,23230.000000
2022-09-16T10:44:00.445Z,23230.000000
2022-09-16T10:45:03.248Z,17940.000000
2022-09-16T10:46:00.548Z,17940.000000
2022-09-16T10:47:00.426Z,17940.000000
2022-09-16T10:48:03.461Z,17220.000000
2022-09-16T10:49:00.442Z,17220.000000
2022-09-16T10:50:05.272Z,7972.000000
2022-09-16T10:51:00.474Z,7972.000000
2022-09-16T10:52:00.547Z,7972.000000
2022-09-16T10:53:00.474Z,4743.000000
2022-09-16T10:54:00.583Z,4743.000000
2022-09-16T10:55:03.590Z,4743.000000
2022-09-16T10:56:00.547Z,6743.000000
2022-09-16T10:57:00.522Z,6743.000000
2022-09-16T10:58:00.588Z,13790.000000
2022-09-16T10:59:00.522Z,13790.000000
2022-09-16T11:00:04.279Z,13790.000000
2022-09-16T11:01:00.679Z,18860.000000
2022-09-16T11:02:00.892Z,18860.000000
2022-09-16T11:03:00.594Z,14390.000000
2022-09-16T11:04:00.635Z,14390.000000
2022-09-16T11:05:03.688Z,20420.000000
2022-09-16T11:06:00.661Z,20420.000000
2022-09-16T11:07:00.601Z,20420.000000
2022-09-16T11:08:00.666Z,5224.000000
2022-09-16T11:09:00.612Z,5224.000000
2022-09-16T11:10:05.115Z,5224.000000
2022-09-16T11:11:00.628Z,11460.000000
2022-09-16T11:12:00.709Z,11460.000000
2022-09-16T11:13:00.648Z,8954.000000